createdAt,value
2019-01-26T00:02:22.127Z,8.05
2019-01-26T00:04:51.154Z,9.58
2019-01-26T00:07:19.849Z,8.95
2019-01-26T00:09:48.923Z,9.27
2019-01-26T00:12:17.680Z,8.95
2019-01-26T00:14:46.590Z,8.30
2019-01-26T00:17:15.335Z,9.37
2019-01-26T00:19:44.170Z,8.43
2019-01-26T00:22:12.490Z,10.77
2019-01-26T00:24:40.905Z,12.23
2019-01-26T00:27:09.277Z,10.47
2019-01-26T00:29:37.623Z,10.33
2019-01-26T00:32:06.064Z,9.80
2019-01-26T00:34:34.453Z,8.87
2019-01-26T00:37:02.786Z,8.77
2019-01-26T00:39:31.119Z,9.17
2019-01-26T00:41:59.447Z,8.03
2019-01-26T00:44:27.766Z,10.93
2019-01-26T00:46:56.086Z,11.43
2019-01-26T00:49:24.859Z,10.47
2019-01-26T00:51:53.690Z,13.57
2019-01-26T00:54:22.528Z,8.80
2019-01-26T00:56:51.533Z,9.23
2019-01-26T00:59:20.471Z,8.20
2019-01-26T01:01:49.226Z,10.23
2019-01-26T01:04:18.431Z,10.13
2019-01-26T01:06:47.170Z,9.98
2019-01-26T01:09:15.625Z,9.58
2019-01-26T01:11:44.365Z,9.03
2019-01-26T01:14:13.283Z,9.00
2019-01-26T01:16:41.763Z,9.00
2019-01-26T01:19:10.207Z,9.50
2019-01-26T01:21:38.563Z,8.45
2019-01-26T01:24:06.836Z,8.30
2019-01-26T01:26:35.404Z,8.60
2019-01-26T01:29:03.850Z,9.48
2019-01-26T01:31:32.286Z,9.20
2019-01-26T01:34:00.694Z,9.68
2019-01-26T01:36:29.029Z,9.15
2019-01-26T01:38:57.517Z,8.93
2019-01-26T01:41:25.834Z,8.75
2019-01-26T01:43:54.655Z,9.13
2019-01-26T01:46:23.867Z,10.20
2019-01-26T01:48:52.813Z,9.90
2019-01-26T01:51:21.549Z,9.90
2019-01-26T01:53:50.390Z,11.28
2019-01-26T01:56:19.026Z,11.65
2019-01-26T01:58:48.047Z,11.00
2019-01-26T02:01:16.883Z,9.08
2019-01-26T02:03:45.222Z,10.70
2019-01-26T02:06:13.542Z,13.32
2019-01-26T02:08:41.879Z,12.93
2019-01-26T02:11:10.270Z,12.20
2019-01-26T02:13:38.590Z,10.20
2019-01-26T02:16:06.927Z,14.38
2019-01-26T02:18:35.359Z,13.43
2019-01-26T02:21:05.082Z,14.68
2019-01-26T02:23:33.417Z,12.43
2019-01-26T02:26:01.802Z,13.13
2019-01-26T02:28:30.166Z,10.23
2019-01-26T02:30:58.519Z,10.00
2019-01-26T02:33:26.855Z,12.43
2019-01-26T02:35:55.172Z,11.20
2019-01-26T02:38:23.487Z,10.80
2019-01-26T02:40:52.341Z,10.53
2019-01-26T02:43:21.079Z,10.77
2019-01-26T02:45:50.170Z,12.13
2019-01-26T02:48:18.822Z,12.57
2019-01-26T02:50:47.496Z,14.00
2019-01-26T02:53:16.293Z,14.30
2019-01-26T02:55:45.715Z,11.90
2019-01-26T02:58:14.371Z,11.13
2019-01-26T03:00:43.199Z,10.33
2019-01-26T03:03:12.305Z,9.63
2019-01-26T03:05:41.326Z,9.57
2019-01-26T03:08:10.461Z,11.33
2019-01-26T03:10:39.487Z,9.10
2019-01-26T03:13:08.139Z,9.40
2019-01-26T03:15:37.246Z,9.37
2019-01-26T03:18:06.187Z,9.13
2019-01-26T03:20:35.035Z,9.80
2019-01-26T03:23:04.049Z,9.50
2019-01-26T03:25:32.687Z,10.07
2019-01-26T03:28:01.506Z,9.37
2019-01-26T03:30:30.544Z,9.67
2019-01-26T03:32:59.583Z,9.83
2019-01-26T03:35:28.603Z,10.00
2019-01-26T03:37:57.541Z,9.03
2019-01-26T03:40:26.284Z,9.80
2019-01-26T03:42:55.490Z,8.87
2019-01-26T03:45:24.143Z,9.40
2019-01-26T03:47:53.160Z,9.47
2019-01-26T03:50:22.191Z,9.47
2019-01-26T03:52:50.524Z,9.90
2019-01-26T03:55:20.250Z,9.60
2019-01-26T03:57:48.671Z,9.00
2019-01-26T04:00:21.431Z,8.70
2019-01-26T04:02:49.766Z,8.73
2019-01-26T04:05:18.194Z,10.70
2019-01-26T04:07:46.606Z,8.87
2019-01-26T04:10:15.177Z,11.00
2019-01-26T04:12:43.607Z,10.30
2019-01-26T04:15:12.562Z,9.50
2019-01-26T04:17:40.973Z,8.83
2019-01-26T04:20:10.656Z,9.57
2019-01-26T04:22:39.086Z,9.50
2019-01-26T04:25:07.502Z,9.93
2019-01-26T04:27:36.276Z,9.40
2019-01-26T04:30:05.783Z,9.43
2019-01-26T04:32:35.104Z,8.93
2019-01-26T04:35:04.079Z,8.53
2019-01-26T04:37:32.791Z,9.33
2019-01-26T04:40:01.996Z,9.27
2019-01-26T04:42:30.930Z,9.67
2019-01-26T04:44:59.262Z,9.77
2019-01-26T04:47:31.004Z,9.33
2019-01-26T04:49:58.911Z,10.77
2019-01-26T04:52:27.279Z,9.50
2019-01-26T04:54:55.707Z,10.10
2019-01-26T04:57:24.045Z,10.60
2019-01-26T04:59:52.364Z,9.77
2019-01-26T05:02:20.690Z,9.77
2019-01-26T05:04:49.006Z,9.80
2019-01-26T05:07:17.446Z,11.13
2019-01-26T05:09:45.883Z,10.67
2019-01-26T05:12:14.692Z,10.40
2019-01-26T05:14:43.702Z,10.60
2019-01-26T05:17:12.117Z,10.97
2019-01-26T05:19:40.460Z,10.47
2019-01-26T05:22:08.802Z,10.77
2019-01-26T05:24:37.202Z,10.20
2019-01-26T05:27:05.656Z,10.57
2019-01-26T05:29:33.979Z,9.83
2019-01-26T05:32:02.307Z,10.87
2019-01-26T05:34:30.648Z,10.73
2019-01-26T05:36:58.983Z,11.00
2019-01-26T05:39:27.312Z,10.90
2019-01-26T05:41:55.638Z,10.50
2019-01-26T05:44:23.949Z,10.80
2019-01-26T05:46:52.270Z,11.53
2019-01-26T05:49:20.602Z,11.50
2019-01-26T05:51:48.935Z,11.27
2019-01-26T05:54:17.257Z,11.30
2019-01-26T05:56:45.902Z,11.77
2019-01-26T05:59:14.348Z,11.93
2019-01-26T06:01:43.070Z,11.77
2019-01-26T06:04:12.298Z,11.25
2019-01-26T06:06:40.950Z,10.73
2019-01-26T06:09:09.838Z,11.33
2019-01-26T06:11:38.901Z,11.23
2019-01-26T06:14:08.219Z,11.05
2019-01-26T06:16:36.895Z,11.83
2019-01-26T06:19:05.892Z,12.00
2019-01-26T06:21:34.246Z,11.83
2019-01-26T06:24:02.596Z,11.63
2019-01-26T06:26:30.912Z,11.50
2019-01-26T06:28:59.277Z,12.33
2019-01-26T06:31:27.713Z,11.68
2019-01-26T06:33:56.057Z,11.48
2019-01-26T06:36:24.498Z,12.07
2019-01-26T06:38:53.564Z,12.05
2019-01-26T06:41:22.052Z,12.43
2019-01-26T06:43:50.370Z,11.38
2019-01-26T06:46:18.712Z,10.98
2019-01-26T06:48:48.711Z,12.13
2019-01-26T06:51:17.165Z,11.50
2019-01-26T06:53:45.485Z,11.87
2019-01-26T06:56:13.820Z,13.50
2019-01-26T06:58:42.150Z,11.77
2019-01-26T07:01:10.556Z,10.97
2019-01-26T07:03:38.918Z,12.23
2019-01-26T07:06:32.427Z,12.23
2019-01-26T07:09:00.763Z,11.80
2019-01-26T07:11:29.105Z,12.07
2019-01-26T07:13:57.623Z,12.73
2019-01-26T07:16:27.136Z,13.53
2019-01-26T07:18:56.175Z,13.00
2019-01-26T07:21:24.951Z,12.43
2019-01-26T07:23:53.667Z,11.77
2019-01-26T07:26:22.298Z,11.63
2019-01-26T07:28:50.973Z,11.27
2019-01-26T07:31:20.079Z,10.57
2019-01-26T07:33:48.965Z,12.03
2019-01-26T07:36:17.630Z,12.40
2019-01-26T07:38:46.660Z,12.77
2019-01-26T07:41:34.293Z,12.53
2019-01-26T07:43:51.328Z,11.48
2019-01-26T07:46:20.188Z,12.00
2019-01-26T07:48:48.912Z,12.20
2019-01-26T07:51:17.626Z,12.43
2019-01-26T07:53:47.303Z,12.33
2019-01-26T07:56:16.230Z,12.68
2019-01-26T07:58:49.578Z,11.20
2019-01-26T08:01:18.813Z,11.75
2019-01-26T08:03:48.036Z,11.38
2019-01-26T08:06:16.769Z,13.13
2019-01-26T08:08:45.204Z,12.00
2019-01-26T08:11:13.553Z,12.40
2019-01-26T08:13:41.986Z,11.90
2019-01-26T08:16:10.445Z,12.65
2019-01-26T08:18:39.478Z,10.98
2019-01-26T08:21:08.501Z,11.33
2019-01-26T08:23:37.164Z,10.25
2019-01-26T08:26:05.613Z,11.55
2019-01-26T08:28:34.039Z,10.90
2019-01-26T08:31:02.364Z,9.98
2019-01-26T08:33:30.710Z,10.53
2019-01-26T08:35:59.084Z,10.78
2019-01-26T08:38:28.912Z,10.87
2019-01-26T08:40:57.426Z,10.77
2019-01-26T08:43:25.758Z,11.43
2019-01-26T08:45:54.174Z,10.83
2019-01-26T08:48:22.503Z,10.97
2019-01-26T08:50:51.117Z,11.10
2019-01-26T08:53:19.440Z,10.83
2019-01-26T08:55:47.778Z,10.93
2019-01-26T08:58:16.118Z,10.93
2019-01-26T09:00:44.480Z,12.13
2019-01-26T09:03:25.814Z,10.67
2019-01-26T09:06:09.870Z,11.13
2019-01-26T09:08:38.194Z,10.20
2019-01-26T09:11:06.684Z,10.77
2019-01-26T09:13:35.014Z,10.97
2019-01-26T09:16:03.582Z,11.00
2019-01-26T09:18:38.553Z,11.60
2019-01-26T09:21:01.900Z,11.27
2019-01-26T09:23:30.238Z,11.73
2019-01-26T09:25:58.694Z,11.40
2019-01-26T09:28:27.160Z,9.83
2019-01-26T09:30:55.607Z,11.37
2019-01-26T09:33:24.043Z,9.97
2019-01-26T09:35:52.357Z,10.87
2019-01-26T09:38:20.679Z,12.27
2019-01-26T09:40:49.004Z,11.37
2019-01-26T09:43:17.395Z,11.77
2019-01-26T09:45:45.833Z,10.90
2019-01-26T09:48:14.186Z,10.80
2019-01-26T09:50:42.625Z,10.63
2019-01-26T09:53:11.084Z,10.87
2019-01-26T09:55:39.402Z,11.60
2019-01-26T09:58:07.843Z,11.63
2019-01-26T10:00:36.161Z,13.50
2019-01-26T10:03:04.921Z,11.87
2019-01-26T10:05:33.259Z,12.80
2019-01-26T10:08:01.658Z,12.50
2019-01-26T10:10:30.113Z,10.83
2019-01-26T10:12:58.448Z,12.40
2019-01-26T10:15:27.490Z,11.87
2019-01-26T10:17:56.013Z,11.68
2019-01-26T10:20:25.535Z,11.47
2019-01-26T10:22:53.966Z,9.58
2019-01-26T10:25:22.411Z,11.78
2019-01-26T10:27:50.764Z,11.22
2019-01-26T10:30:27.444Z,10.90
2019-01-26T10:32:55.770Z,11.60
2019-01-26T10:35:26.866Z,12.30
2019-01-26T10:37:55.239Z,11.73
2019-01-26T10:40:43.102Z,11.63
2019-01-26T10:43:13.126Z,17.40
2019-01-26T10:45:41.618Z,13.57
2019-01-26T10:48:10.039Z,13.13
2019-01-26T10:50:38.367Z,13.30
2019-01-26T10:53:06.799Z,13.23
2019-01-26T10:55:35.135Z,12.43
2019-01-26T10:58:03.461Z,11.13
2019-01-26T11:00:31.900Z,12.07
2019-01-26T11:03:00.319Z,10.40
2019-01-26T11:05:28.783Z,10.43
2019-01-26T11:07:57.106Z,10.33
2019-01-26T11:10:25.639Z,10.30
2019-01-26T11:12:54.084Z,10.00
2019-01-26T11:15:22.389Z,9.13
2019-01-26T11:17:50.759Z,9.37
2019-01-26T11:20:19.065Z,9.50
2019-01-26T11:22:47.409Z,10.10
2019-01-26T11:25:15.808Z,10.00
2019-01-26T11:27:44.123Z,10.10
2019-01-26T11:30:12.454Z,9.83
2019-01-26T11:32:40.896Z,9.77
2019-01-26T11:35:10.193Z,10.80
2019-01-26T11:37:38.638Z,10.57
2019-01-26T11:40:20.036Z,11.57
2019-01-26T11:42:48.465Z,9.63
2019-01-26T11:45:54.386Z,10.27
2019-01-26T11:48:26.118Z,11.47
2019-01-26T11:51:10.586Z,10.23
2019-01-26T11:53:38.930Z,10.77
2019-01-26T11:56:20.111Z,12.07
2019-01-26T11:58:48.455Z,11.90
2019-01-26T12:01:32.994Z,10.23
2019-01-26T12:04:15.594Z,11.20
2019-01-26T12:06:58.064Z,11.13
2019-01-26T12:09:26.402Z,11.93
2019-01-26T12:11:54.730Z,11.50
2019-01-26T12:14:23.066Z,12.33
2019-01-26T12:16:51.386Z,12.43
2019-01-26T12:19:22.481Z,10.93
2019-01-26T12:21:49.879Z,10.23
2019-01-26T12:24:18.499Z,11.03
2019-01-26T12:26:46.926Z,11.73
2019-01-26T12:29:15.256Z,12.23
2019-01-26T12:31:43.670Z,12.63
2019-01-26T12:34:11.998Z,10.77
2019-01-26T12:36:40.348Z,10.80
2019-01-26T12:39:10.265Z,11.27
2019-01-26T12:41:38.695Z,10.47
2019-01-26T12:44:07.359Z,11.37
2019-01-26T12:46:36.298Z,10.83
2019-01-26T12:49:05.067Z,10.67
2019-01-26T12:51:33.448Z,10.37
2019-01-26T12:54:01.789Z,10.57
2019-01-26T12:56:30.166Z,11.47
2019-01-26T12:58:58.502Z,10.83
2019-01-26T13:01:26.889Z,12.00
2019-01-26T13:03:55.262Z,10.30
2019-01-26T13:06:23.746Z,11.90
2019-01-26T13:08:52.089Z,11.37
2019-01-26T13:11:22.330Z,12.30
2019-01-26T13:13:51.991Z,11.47
2019-01-26T13:16:20.606Z,11.70
2019-01-26T13:18:49.272Z,11.07
2019-01-26T13:21:18.306Z,12.37
2019-01-26T13:23:47.326Z,11.47
2019-01-26T13:26:16.186Z,11.70
2019-01-26T13:28:45.290Z,11.57
2019-01-26T13:31:14.047Z,11.77
2019-01-26T13:33:42.438Z,12.77
2019-01-26T13:36:10.888Z,13.37
2019-01-26T13:38:39.233Z,12.57
2019-01-26T13:41:07.558Z,11.80
2019-01-26T13:43:35.878Z,11.97
2019-01-26T13:46:05.586Z,13.20
2019-01-26T13:48:34.087Z,12.30
2019-01-26T13:51:03.106Z,13.37
2019-01-26T13:53:31.772Z,12.87
2019-01-26T13:56:00.977Z,12.30
2019-01-26T13:58:29.623Z,13.67
2019-01-26T14:00:58.255Z,12.03
2019-01-26T14:03:27.465Z,11.70
2019-01-26T14:05:56.403Z,12.60
2019-01-26T14:08:25.531Z,12.50
2019-01-26T14:10:54.952Z,12.33
2019-01-26T14:13:23.652Z,12.90
2019-01-26T14:15:52.147Z,12.93
2019-01-26T14:18:20.631Z,12.50
2019-01-26T14:20:48.996Z,12.00
2019-01-26T14:23:17.334Z,12.70
2019-01-26T14:25:45.657Z,13.20
2019-01-26T14:28:14.052Z,12.17
2019-01-26T14:30:44.461Z,12.33
2019-01-26T14:33:12.886Z,39.57
2019-01-26T14:35:41.370Z,48.60
2019-01-26T14:38:09.799Z,19.53
2019-01-26T14:40:38.146Z,14.40
2019-01-26T14:43:06.610Z,13.37
2019-01-26T14:45:35.045Z,13.10
2019-01-26T14:48:03.505Z,14.27
2019-01-26T14:50:32.029Z,14.23
2019-01-26T14:53:00.372Z,14.47
2019-01-26T14:55:28.867Z,13.67
2019-01-26T14:57:57.298Z,14.13
2019-01-26T15:00:29.979Z,14.73
2019-01-26T15:02:58.319Z,13.93
2019-01-26T15:05:27.477Z,14.17
2019-01-26T15:07:55.933Z,15.00
2019-01-26T15:10:24.398Z,14.10
2019-01-26T15:12:52.834Z,14.83
2019-01-26T15:15:21.172Z,14.80
2019-01-26T15:17:49.524Z,14.00
2019-01-26T15:20:19.406Z,14.20
2019-01-26T15:22:47.751Z,14.33
2019-01-26T15:25:16.187Z,15.43
2019-01-26T15:27:44.509Z,14.17
2019-01-26T15:30:15.117Z,14.30
2019-01-26T15:32:43.514Z,15.07
2019-01-26T15:35:11.954Z,14.50
2019-01-26T15:37:40.323Z,12.90
2019-01-26T15:40:09.099Z,14.60
2019-01-26T15:42:37.422Z,14.83
2019-01-26T15:45:07.345Z,14.17
2019-01-26T15:47:35.687Z,12.80
2019-01-26T15:50:04.882Z,13.70
2019-01-26T15:52:33.256Z,14.57
2019-01-26T15:55:01.590Z,14.03
2019-01-26T15:57:30.102Z,13.60
2019-01-26T15:59:58.440Z,13.23
2019-01-26T16:02:26.907Z,14.07
2019-01-26T16:04:55.310Z,14.00
2019-01-26T16:07:23.630Z,14.00
2019-01-26T16:09:51.973Z,13.50
2019-01-26T16:12:20.326Z,13.50
2019-01-26T16:14:48.649Z,14.80
2019-01-26T16:17:17.017Z,13.43
2019-01-26T16:19:45.409Z,13.63
2019-01-26T16:22:13.851Z,15.27
2019-01-26T16:24:42.288Z,14.57
2019-01-26T16:27:10.616Z,14.93
2019-01-26T16:29:38.953Z,15.20
2019-01-26T16:32:07.325Z,15.00
2019-01-26T16:34:35.691Z,15.20
2019-01-26T16:37:04.208Z,16.00
2019-01-26T16:39:32.582Z,27.67
2019-01-26T16:42:01.898Z,15.87
2019-01-26T16:44:30.373Z,14.87
2019-01-26T16:46:58.722Z,13.43
2019-01-26T16:49:27.042Z,13.80
2019-01-26T16:51:55.433Z,14.23
2019-01-26T16:54:23.851Z,14.33
2019-01-26T16:56:52.296Z,14.00
2019-01-26T16:59:20.786Z,14.97
2019-01-26T17:01:49.123Z,17.10
2019-01-26T17:04:17.474Z,17.80
2019-01-26T17:06:45.806Z,17.77
2019-01-26T17:09:14.223Z,17.23
2019-01-26T17:11:42.575Z,17.17
2019-01-26T17:14:10.962Z,17.07
2019-01-26T17:16:39.353Z,17.17
2019-01-26T17:19:07.953Z,17.03
2019-01-26T17:21:36.342Z,17.13
2019-01-26T17:24:04.752Z,16.90
2019-01-26T17:26:33.078Z,17.07
2019-01-26T17:29:01.414Z,17.07
2019-01-26T17:31:29.755Z,16.67
2019-01-26T17:33:58.094Z,17.40
2019-01-26T17:36:26.524Z,16.50
2019-01-26T17:38:54.895Z,17.23
2019-01-26T17:41:23.361Z,18.43
2019-01-26T17:43:51.708Z,18.87
2019-01-26T17:46:20.047Z,18.00
2019-01-26T17:48:48.626Z,19.20
2019-01-26T17:51:17.566Z,18.70
2019-01-26T17:53:51.154Z,18.73
2019-01-26T17:59:41.415Z,17.60
2019-01-26T18:02:09.987Z,18.53
2019-01-26T18:04:38.423Z,17.70
2019-01-26T18:07:07.155Z,18.90
2019-01-26T18:09:35.553Z,16.93
2019-01-26T18:12:04.362Z,18.10
2019-01-26T18:14:32.808Z,19.97
2019-01-26T18:17:01.317Z,18.37
2019-01-26T18:19:31.131Z,17.70
2019-01-26T18:21:59.624Z,17.70
2019-01-26T18:24:28.412Z,18.57
2019-01-26T18:26:57.203Z,19.23
2019-01-26T18:29:26.049Z,18.43
2019-01-26T18:31:58.042Z,18.43
2019-01-26T18:34:26.944Z,17.80
2019-01-26T18:36:55.898Z,19.17
2019-01-26T18:39:24.754Z,18.80
2019-01-26T18:41:53.990Z,19.43
2019-01-26T18:44:22.765Z,18.53
2019-01-26T18:46:51.333Z,18.90
2019-01-26T18:49:20.098Z,18.07
2019-01-26T18:51:48.471Z,18.43
2019-01-26T18:54:16.804Z,18.03
2019-01-26T18:56:45.160Z,18.50
2019-01-26T18:59:13.610Z,19.13
2019-01-26T19:01:41.953Z,19.47
2019-01-26T19:04:12.718Z,18.77
2019-01-26T19:06:41.065Z,17.60
2019-01-26T19:09:10.971Z,19.23
2019-01-26T19:11:39.414Z,18.67
2019-01-26T19:14:07.844Z,23.30
2019-01-26T19:16:36.327Z,22.97
2019-01-26T19:19:05.062Z,19.30
2019-01-26T19:21:33.405Z,20.23
2019-01-26T19:24:01.754Z,20.47
2019-01-26T19:26:30.189Z,21.07
2019-01-26T19:28:58.558Z,20.43
2019-01-26T19:31:26.993Z,23.13
2019-01-26T19:33:55.350Z,21.67
2019-01-26T19:36:23.848Z,21.43
2019-01-26T19:38:52.230Z,20.43
2019-01-26T19:41:20.578Z,21.50
2019-01-26T19:43:48.918Z,21.13
2019-01-26T19:46:17.349Z,21.43
2019-01-26T19:48:45.754Z,20.03
2019-01-26T19:51:14.156Z,20.80
2019-01-26T19:53:42.507Z,21.17
2019-01-26T19:56:10.938Z,20.50
2019-01-26T19:58:39.417Z,22.00
2019-01-26T20:01:07.793Z,20.53
2019-01-26T20:03:36.140Z,20.90
2019-01-26T20:06:04.968Z,21.57
2019-01-26T20:08:33.393Z,20.93
2019-01-26T20:11:01.717Z,20.27
2019-01-26T20:13:30.862Z,20.37
2019-01-26T20:15:59.515Z,20.93
2019-01-26T20:18:27.975Z,22.03
2019-01-26T20:20:56.551Z,25.13
2019-01-26T20:23:24.883Z,23.13
2019-01-26T20:25:53.370Z,23.07
2019-01-26T20:28:21.781Z,22.60
2019-01-26T20:30:50.218Z,21.70
2019-01-26T20:33:18.610Z,20.63
2019-01-26T20:35:47.042Z,19.60
2019-01-26T20:38:15.376Z,20.13
2019-01-26T20:40:43.815Z,20.93
2019-01-26T20:43:12.159Z,19.90
2019-01-26T20:45:40.610Z,19.83
2019-01-26T20:48:09.181Z,20.50
2019-01-26T20:50:37.705Z,20.33
2019-01-26T20:53:06.410Z,21.23
2019-01-26T20:55:34.866Z,21.17
2019-01-26T20:58:03.306Z,20.90
2019-01-26T21:00:31.765Z,21.90
2019-01-26T21:03:00.246Z,22.57
2019-01-26T21:05:28.703Z,22.30
2019-01-26T21:07:57.045Z,21.37
2019-01-26T21:10:26.495Z,22.53
2019-01-26T21:12:55.496Z,23.10
2019-01-26T21:15:23.964Z,22.63
2019-01-26T21:17:52.278Z,23.63
2019-01-26T21:20:21.131Z,25.07
2019-01-26T21:22:49.473Z,25.27
2019-01-26T21:25:17.970Z,24.57
2019-01-26T21:27:46.335Z,24.33
2019-01-26T21:30:16.212Z,24.10
2019-01-26T21:32:44.598Z,24.27
2019-01-26T21:35:13.048Z,24.73
2019-01-26T21:37:41.486Z,23.53
2019-01-26T21:40:12.018Z,22.97
2019-01-26T21:42:40.401Z,25.20
2019-01-26T21:45:09.308Z,24.10
2019-01-26T21:47:37.825Z,24.07
2019-01-26T21:50:08.108Z,24.80
2019-01-26T21:52:40.902Z,23.80
2019-01-26T21:55:06.777Z,23.70
2019-01-26T21:57:35.370Z,24.67
2019-01-26T22:00:04.414Z,26.07
2019-01-26T22:02:33.032Z,25.60
2019-01-26T22:05:01.622Z,27.03
2019-01-26T22:07:29.935Z,24.90
2019-01-26T22:09:58.782Z,25.47
2019-01-26T22:12:27.131Z,23.80
2019-01-26T22:14:55.517Z,24.87
2019-01-26T22:17:23.916Z,23.93
2019-01-26T22:19:52.282Z,24.27
2019-01-26T22:22:20.644Z,24.93
2019-01-26T22:24:48.973Z,24.23
2019-01-26T22:27:17.482Z,24.40
2019-01-26T22:29:46.066Z,25.10
2019-01-26T22:32:14.518Z,25.63
2019-01-26T22:34:42.892Z,25.60
2019-01-26T22:37:11.339Z,24.43
2019-01-26T22:39:39.690Z,25.07
2019-01-26T22:42:08.131Z,25.87
2019-01-26T22:44:36.668Z,25.67
2019-01-26T22:47:05.402Z,26.17
2019-01-26T22:49:33.853Z,26.43
2019-01-26T22:52:02.194Z,24.93
2019-01-26T22:54:30.580Z,26.77
2019-01-26T22:56:58.937Z,25.00
2019-01-26T22:59:27.276Z,22.57
2019-01-26T23:01:55.767Z,23.33
2019-01-26T23:04:43.181Z,24.33
2019-01-26T23:07:29.103Z,21.70
2019-01-26T23:10:12.664Z,20.67
2019-01-26T23:13:02.998Z,20.80
2019-01-26T23:15:50.356Z,21.93
2019-01-26T23:18:32.544Z,20.50
2019-01-26T23:21:22.606Z,20.83
2019-01-26T23:24:08.423Z,20.93
2019-01-26T23:26:54.486Z,19.83
2019-01-26T23:29:44.895Z,21.67
2019-01-26T23:32:13.843Z,21.03
2019-01-26T23:34:42.349Z,21.83
2019-01-26T23:37:10.693Z,22.77
2019-01-26T23:39:39.039Z,23.27
2019-01-26T23:42:07.477Z,21.37
2019-01-26T23:44:35.921Z,22.63
2019-01-26T23:47:04.277Z,22.73
2019-01-26T23:49:32.603Z,23.23
2019-01-26T23:52:00.962Z,23.17
2019-01-26T23:54:29.315Z,23.67
2019-01-26T23:56:57.674Z,22.37
2019-01-26T23:59:26.021Z,23.33
